Time;durP1;ratioP1;P1;durP2;ratioP2;P2;SDS_P1;SDS_P2;PMS_P1;PMS_P2;Temp;Humidity;BMP_temperature;BMP_pressure;BME280_temperature;BME280_humidity;BME280_pressure;Samples;Min_cycle;Max_cycle;Signal;HPM_P1;HPM_P2
2022/06/30 00:00:03;;;;;;;10.95;5.75;;;20.50;99.90;;;;;;5056532;28;20017;-77
2022/06/30 00:02:29;;;;;;;7.90;5.22;;;20.40;99.90;;;;;;5050483;28;20024;-77
2022/06/30 00:04:55;;;;;;;10.10;5.55;;;20.40;99.90;;;;;;5055909;28;20460;-77
2022/06/30 00:07:20;;;;;;;7.38;5.70;;;20.40;99.90;;;;;;5050755;28;20029;-77
2022/06/30 00:09:46;;;;;;;13.55;6.15;;;20.30;99.90;;;;;;5052494;28;20033;-77
2022/06/30 00:12:12;;;;;;;7.50;5.38;;;20.30;99.90;;;;;;5050413;28;20460;-77
2022/06/30 00:14:38;;;;;;;10.32;5.30;;;20.30;99.90;;;;;;5045964;28;20190;-75
2022/06/30 00:17:04;;;;;;;6.15;4.78;;;20.20;99.90;;;;;;5040967;28;20124;-77
2022/06/30 00:19:30;;;;;;;8.75;4.93;;;20.10;99.90;;;;;;5052316;28;20028;-77
2022/06/30 00:21:55;;;;;;;8.38;4.82;;;20.10;99.90;;;;;;5043062;28;20021;-77
2022/06/30 00:24:21;;;;;;;7.47;5.20;;;20.10;99.90;;;;;;5053328;28;20029;-76
2022/06/30 00:26:47;;;;;;;6.30;4.70;;;20.00;99.90;;;;;;5038649;28;20043;-77
2022/06/30 00:29:12;;;;;;;12.45;5.38;;;20.00;99.90;;;;;;5052660;28;20041;-77
2022/06/30 00:31:38;;;;;;;6.95;5.03;;;20.00;99.90;;;;;;5052114;28;20029;-77
2022/06/30 00:34:04;;;;;;;7.40;5.20;;;19.90;99.90;;;;;;5051793;28;20036;-76
2022/06/30 00:36:29;;;;;;;8.30;5.40;;;19.90;99.90;;;;;;5047749;28;20025;-77
2022/06/30 00:38:55;;;;;;;7.40;5.25;;;19.80;99.90;;;;;;5045702;28;20025;-77
2022/06/30 00:41:21;;;;;;;12.85;5.57;;;19.80;99.90;;;;;;5054301;28;20033;-77
2022/06/30 00:43:48;;;;;;;6.18;5.57;;;19.80;99.90;;;;;;5057034;28;20021;-77
2022/06/30 00:46:15;;;;;;;9.00;5.10;;;19.80;99.90;;;;;;5043656;28;20029;-76
2022/06/30 00:48:42;;;;;;;5.97;4.57;;;19.80;99.90;;;;;;5058114;28;20367;-77
2022/06/30 00:51:08;;;;;;;7.88;4.93;;;19.80;99.90;;;;;;5056463;28;20067;-76
2022/06/30 00:53:36;;;;;;;6.97;5.28;;;19.80;99.90;;;;;;5053004;28;20450;-77
2022/06/30 00:56:07;;;;;;;6.60;4.85;;;19.80;99.90;;;;;;5052620;28;20026;-77
2022/06/30 00:58:39;;;;;;;10.15;5.75;;;19.80;99.90;;;;;;5051961;28;20063;-76
2022/06/30 01:01:07;;;;;;;7.32;5.80;;;19.80;99.90;;;;;;5055768;28;20037;-77
2022/06/30 01:03:34;;;;;;;6.80;5.30;;;19.80;99.90;;;;;;5059157;28;20048;-77
2022/06/30 01:06:04;;;;;;;7.38;4.68;;;19.80;99.90;;;;;;5062675;28;20028;-77
2022/06/30 01:08:30;;;;;;;11.20;6.15;;;19.70;99.90;;;;;;5051495;28;20071;-75
2022/06/30 01:13:42;;;;;;;6.47;5.63;;;19.70;99.90;;;;;;5060364;28;20051;-77
2022/06/30 01:16:08;;;;;;;8.48;6.07;;;19.70;99.90;;;;;;5051861;28;20049;-76
2022/06/30 01:18:34;;;;;;;8.77;6.03;;;19.70;99.90;;;;;;5060147;28;20484;-77
2022/06/30 01:21:00;;;;;;;7.20;5.65;;;19.70;99.90;;;;;;5032613;28;20029;-75
2022/06/30 01:23:26;;;;;;;6.88;4.93;;;19.60;99.90;;;;;;5051445;28;20028;-76
2022/06/30 01:25:52;;;;;;;8.27;5.60;;;19.60;99.90;;;;;;5058286;28;20028;-76
2022/06/30 01:28:19;;;;;;;6.20;4.90;;;19.60;99.90;;;;;;5061443;28;20047;-76
2022/06/30 01:30:44;;;;;;;10.65;5.32;;;19.60;99.90;;;;;;5059835;28;20081;-76
2022/06/30 01:33:10;;;;;;;6.57;5.20;;;19.60;99.90;;;;;;5054731;28;20459;-76
2022/06/30 01:35:36;;;;;;;8.25;5.53;;;19.60;99.90;;;;;;5039096;28;20496;-77
2022/06/30 01:38:02;;;;;;;8.05;5.60;;;19.60;99.90;;;;;;5047302;28;20028;-77
2022/06/30 01:40:30;;;;;;;7.95;5.15;;;19.50;99.90;;;;;;5048128;28;20086;-77
2022/06/30 01:42:56;;;;;;;8.93;5.30;;;19.50;99.90;;;;;;5058274;28;20457;-77
2022/06/30 01:45:23;;;;;;;8.73;5.43;;;19.50;99.90;;;;;;5072816;23;20041;-77
2022/06/30 01:47:50;;;;;;;7.68;4.95;;;19.50;99.90;;;;;;5039505;28;20419;-76
2022/06/30 01:50:35;;;;;;;7.47;5.30;;;19.50;99.90;;;;;;5050460;28;20074;-77
2022/06/30 01:53:02;;;;;;;8.23;5.85;;;19.40;99.90;;;;;;5034049;28;20036;-76
2022/06/30 01:55:28;;;;;;;5.85;5.25;;;19.40;99.90;;;;;;5048910;28;20048;-75
2022/06/30 01:57:54;;;;;;;7.75;5.13;;;19.40;99.90;;;;;;5030348;28;20020;-76
2022/06/30 02:00:26;;;;;;;6.57;4.80;;;19.40;99.90;;;;;;5034920;28;20075;-76
2022/06/30 02:02:53;;;;;;;11.05;5.63;;;19.40;99.90;;;;;;5047147;28;20390;-75
2022/06/30 02:05:19;;;;;;;7.43;5.63;;;19.40;99.90;;;;;;5039359;28;20492;-76
2022/06/30 02:07:45;;;;;;;8.75;6.03;;;19.30;99.90;;;;;;5058709;28;20332;-75
2022/06/30 02:10:17;;;;;;;7.35;5.78;;;19.30;99.90;;;;;;5053573;28;20036;-77
2022/06/30 02:12:46;;;;;;;7.03;4.93;;;19.30;99.90;;;;;;5052384;28;20035;-76
2022/06/30 02:15:32;;;;;;;10.63;5.63;;;19.30;99.90;;;;;;5032154;28;20120;-75
2022/06/30 02:17:59;;;;;;;9.32;5.80;;;19.20;99.90;;;;;;5052698;28;20052;-76
2022/06/30 02:20:25;;;;;;;8.13;5.60;;;19.20;99.90;;;;;;5046500;28;20029;-76
2022/06/30 02:22:56;;;;;;;9.32;5.18;;;19.20;99.90;;;;;;5050771;28;20031;-75
2022/06/30 02:25:23;;;;;;;6.95;5.50;;;19.20;99.90;;;;;;5041869;28;20116;-76
2022/06/30 02:27:50;;;;;;;8.15;5.80;;;19.20;99.90;;;;;;5047475;28;20033;-76
2022/06/30 02:30:17;;;;;;;8.02;4.90;;;19.20;99.90;;;;;;5048948;28;20056;-76
2022/06/30 02:32:43;;;;;;;7.03;5.53;;;19.10;99.90;;;;;;5049327;28;20087;-76
2022/06/30 02:35:09;;;;;;;8.60;5.03;;;19.10;99.90;;;;;;5047594;28;20496;-76
2022/06/30 02:37:35;;;;;;;9.23;5.63;;;19.10;99.90;;;;;;5048905;28;20075;-75
2022/06/30 02:40:01;;;;;;;6.47;5.20;;;19.10;99.90;;;;;;5049391;28;20387;-75
2022/06/30 02:42:27;;;;;;;7.20;5.82;;;19.10;99.90;;;;;;5051299;28;20025;-77
2022/06/30 02:44:52;;;;;;;5.93;5.05;;;19.10;99.90;;;;;;5042192;28;20370;-75
2022/06/30 02:47:18;;;;;;;6.90;5.53;;;19.10;99.90;;;;;;5055490;28;20029;-76
2022/06/30 02:49:44;;;;;;;6.40;5.22;;;19.00;99.90;;;;;;5051592;28;20591;-77
2022/06/30 02:52:10;;;;;;;11.43;5.57;;;19.10;99.90;;;;;;5051336;28;20036;-77
2022/06/30 02:54:35;;;;;;;8.38;5.82;;;19.00;99.90;;;;;;5049620;28;20037;-77
2022/06/30 02:57:01;;;;;;;9.45;5.45;;;19.00;99.90;;;;;;5038088;28;20036;-77
2022/06/30 02:59:27;;;;;;;7.82;5.93;;;19.00;99.90;;;;;;5036826;28;20082;-77
2022/06/30 03:01:53;;;;;;;9.35;5.90;;;18.90;99.90;;;;;;5056159;28;20768;-77
2022/06/30 03:04:19;;;;;;;9.57;6.07;;;18.90;99.90;;;;;;5050786;28;20021;-76
2022/06/30 03:06:44;;;;;;;9.55;6.90;;;18.90;99.90;;;;;;5055087;28;20060;-75
2022/06/30 03:09:10;;;;;;;9.75;6.50;;;18.80;99.90;;;;;;5050611;28;20113;-76
2022/06/30 03:11:36;;;;;;;8.95;5.40;;;18.90;99.90;;;;;;5045045;28;20440;-74
2022/06/30 03:14:01;;;;;;;8.50;5.95;;;18.80;99.90;;;;;;5045957;28;20039;-76
2022/06/30 03:16:27;;;;;;;8.30;5.63;;;18.80;99.90;;;;;;5034837;28;20024;-76
2022/06/30 03:18:53;;;;;;;7.55;5.47;;;18.70;99.90;;;;;;5053727;28;20087;-76
2022/06/30 03:21:20;;;;;;;7.93;5.70;;;18.70;99.90;;;;;;5051635;28;20053;-75
2022/06/30 03:23:46;;;;;;;6.00;5.10;;;18.70;99.90;;;;;;5053681;28;20040;-76
2022/06/30 03:26:12;;;;;;;10.55;5.65;;;18.70;99.90;;;;;;5042070;28;20525;-76
2022/06/30 03:28:38;;;;;;;6.65;5.45;;;18.70;99.90;;;;;;5049448;28;20313;-76
2022/06/30 03:31:04;;;;;;;6.82;5.53;;;18.70;99.90;;;;;;5040806;28;20056;-76
2022/06/30 03:33:29;;;;;;;8.82;4.90;;;18.70;99.90;;;;;;5042011;28;20082;-76
2022/06/30 03:35:56;;;;;;;6.57;5.68;;;18.70;99.90;;;;;;5049301;28;20507;-76
2022/06/30 03:38:22;;;;;;;7.13;5.55;;;18.60;99.90;;;;;;5051154;28;20036;-76
2022/06/30 03:40:48;;;;;;;9.35;5.80;;;18.70;99.90;;;;;;5043771;28;20033;-77
2022/06/30 03:43:13;;;;;;;8.05;5.80;;;18.60;99.90;;;;;;5044862;28;20401;-76
2022/06/30 03:45:39;;;;;;;9.15;5.97;;;18.70;99.90;;;;;;5043753;28;20407;-77
2022/06/30 03:48:06;;;;;;;9.00;5.75;;;18.70;99.90;;;;;;5032582;28;20028;-77
2022/06/30 03:50:33;;;;;;;8.45;5.65;;;18.70;99.90;;;;;;5047579;28;20048;-76
2022/06/30 03:52:59;;;;;;;8.85;5.68;;;18.60;99.90;;;;;;5031233;28;20032;-76
2022/06/30 03:55:25;;;;;;;7.70;5.75;;;18.60;99.90;;;;;;5045012;28;20036;-77
2022/06/30 03:57:50;;;;;;;8.88;5.75;;;18.60;99.90;;;;;;5049242;28;20037;-75
2022/06/30 04:00:16;;;;;;;9.43;5.85;;;18.60;99.90;;;;;;5045710;28;20044;-76
2022/06/30 04:02:42;;;;;;;9.20;5.57;;;18.60;99.90;;;;;;5042387;28;20075;-76
2022/06/30 04:05:08;;;;;;;7.55;5.38;;;18.60;99.90;;;;;;5051208;28;20021;-75
2022/06/30 04:07:43;;;;;;;7.60;5.57;;;18.60;99.90;;;;;;5033010;28;20127;-75
2022/06/30 04:10:10;;;;;;;10.02;5.47;;;18.60;99.90;;;;;;5032571;28;20079;-76
2022/06/30 04:12:36;;;;;;;9.73;5.78;;;18.60;99.90;;;;;;5048678;28;20021;-76
2022/06/30 04:15:03;;;;;;;8.35;5.72;;;18.60;99.90;;;;;;5048302;28;20091;-76
2022/06/30 04:17:29;;;;;;;9.05;5.68;;;18.60;99.90;;;;;;5049010;28;20032;-76
2022/06/30 04:19:54;;;;;;;8.55;6.05;;;18.70;99.90;;;;;;5048675;28;20021;-75
2022/06/30 04:22:20;;;;;;;7.93;5.07;;;18.70;99.90;;;;;;5040124;28;20029;-77
2022/06/30 04:24:46;;;;;;;6.90;5.60;;;18.80;99.90;;;;;;5034322;28;20032;-78
2022/06/30 04:27:12;;;;;;;14.80;6.25;;;18.80;99.90;;;;;;5049878;28;20486;-77
2022/06/30 04:29:38;;;;;;;8.55;6.00;;;18.80;99.90;;;;;;5056170;28;20499;-77
2022/06/30 04:34:48;;;;;;;8.00;6.28;;;18.90;99.90;;;;;;5047650;28;20032;-76
2022/06/30 04:37:15;;;;;;;8.05;6.38;;;19.00;99.90;;;;;;5045138;28;20029;-76
2022/06/30 04:39:41;;;;;;;6.93;6.13;;;19.10;99.90;;;;;;5050692;28;20025;-76
2022/06/30 04:42:07;;;;;;;8.95;6.32;;;19.10;99.90;;;;;;5048215;28;20031;-77
2022/06/30 04:44:32;;;;;;;7.28;5.68;;;19.20;99.90;;;;;;5046692;28;20496;-76
2022/06/30 04:46:58;;;;;;;10.05;6.45;;;19.30;99.90;;;;;;5048743;28;20037;-76
2022/06/30 04:49:23;;;;;;;9.48;6.45;;;19.40;99.90;;;;;;5046578;28;20040;-76
2022/06/30 04:51:50;;;;;;;10.40;5.95;;;19.60;99.90;;;;;;5050271;28;20648;-76
2022/06/30 04:54:16;;;;;;;12.05;6.05;;;19.70;99.90;;;;;;5047658;28;20028;-76
2022/06/30 04:56:42;;;;;;;8.25;6.50;;;19.80;99.90;;;;;;5046764;28;20036;-75
2022/06/30 04:59:07;;;;;;;10.82;6.30;;;19.90;99.90;;;;;;5047403;28;20090;-77
2022/06/30 05:01:33;;;;;;;11.52;6.38;;;20.10;99.90;;;;;;5037359;28;20362;-76
2022/06/30 05:03:59;;;;;;;10.55;6.88;;;20.20;99.90;;;;;;5046340;28;20028;-75
2022/06/30 05:06:24;;;;;;;9.05;6.65;;;20.40;99.90;;;;;;5044896;28;20098;-73
2022/06/30 05:08:50;;;;;;;11.82;7.40;;;20.60;99.90;;;;;;5054662;28;20469;-75
2022/06/30 05:11:16;;;;;;;13.52;7.78;;;20.80;99.90;;;;;;5048713;28;20048;-75
2022/06/30 05:13:41;;;;;;;12.80;7.75;;;20.90;99.90;;;;;;5037407;28;20025;-75
2022/06/30 05:16:07;;;;;;;9.35;8.35;;;21.10;99.90;;;;;;5051592;28;20130;-76
2022/06/30 05:18:32;;;;;;;14.60;8.02;;;21.20;99.90;;;;;;5046849;28;20025;-76
2022/06/30 05:20:58;;;;;;;12.88;8.13;;;21.40;99.90;;;;;;5046151;28;20484;-77
2022/06/30 05:23:24;;;;;;;8.55;7.18;;;21.40;99.90;;;;;;5027081;28;20136;-76
2022/06/30 05:28:33;;;;;;;;;;;21.50;99.90;;;;;;5045611;28;20029;-77
2022/06/30 05:30:59;;;;;;;9.75;6.60;;;21.50;99.90;;;;;;5039365;28;19916;-77
2022/06/30 05:33:25;;;;;;;9.88;6.50;;;21.70;99.90;;;;;;5050909;28;20094;-77
2022/06/30 05:35:53;;;;;;;10.55;6.20;;;21.90;99.90;;;;;;5054712;28;20029;-78
2022/06/30 05:38:19;;;;;;;9.38;6.28;;;22.00;99.90;;;;;;5048397;28;20036;-77
2022/06/30 05:40:48;;;;;;;9.60;6.15;;;22.10;99.90;;;;;;5034040;28;20037;-76
2022/06/30 05:43:15;;;;;;;10.88;6.45;;;22.30;99.90;;;;;;5050658;28;20356;-76
2022/06/30 05:45:42;;;;;;;9.05;6.20;;;22.40;99.90;;;;;;5050658;28;20429;-77
2022/06/30 05:48:08;;;;;;;9.32;6.05;;;22.40;99.90;;;;;;5048037;28;20032;-76
2022/06/30 05:50:33;;;;;;;10.68;6.00;;;22.50;99.90;;;;;;5048297;28;20504;-78
2022/06/30 05:52:59;;;;;;;8.80;7.22;;;22.60;99.90;;;;;;5047569;28;20025;-76
2022/06/30 05:55:25;;;;;;;14.35;5.90;;;22.60;99.90;;;;;;5051300;28;20044;-75
2022/06/30 05:57:56;;;;;;;10.40;7.00;;;22.70;99.90;;;;;;5056533;28;20412;-76
2022/06/30 06:00:24;;;;;;;6.72;5.47;;;22.90;99.90;;;;;;5046083;28;20055;-77
2022/06/30 06:02:50;;;;;;;10.73;5.90;;;23.00;99.90;;;;;;5049901;28;20054;-75
2022/06/30 06:05:16;;;;;;;5.95;4.95;;;23.10;99.90;;;;;;5045705;28;20025;-76
2022/06/30 06:07:42;;;;;;;6.95;5.80;;;23.20;99.90;;;;;;5053176;28;20045;-75
2022/06/30 06:10:08;;;;;;;7.65;5.03;;;23.40;99.90;;;;;;5046280;28;20056;-75
2022/06/30 06:12:34;;;;;;;7.55;5.72;;;23.50;99.90;;;;;;5049385;28;20036;-75
2022/06/30 06:15:00;;;;;;;6.75;5.50;;;23.50;99.90;;;;;;5049570;28;20033;-76
2022/06/30 06:17:26;;;;;;;9.95;6.25;;;23.60;99.90;;;;;;5047050;28;20040;-76
2022/06/30 06:19:51;;;;;;;8.35;5.72;;;23.60;99.90;;;;;;5049898;28;20029;-76
2022/06/30 06:22:17;;;;;;;7.07;5.25;;;23.70;99.90;;;;;;5034335;28;20135;-76
2022/06/30 06:24:42;;;;;;;8.55;5.68;;;23.70;99.90;;;;;;5053497;28;20079;-77
2022/06/30 06:27:08;;;;;;;7.65;5.20;;;23.80;99.90;;;;;;5050279;28;20024;-77
2022/06/30 06:29:34;;;;;;;8.85;6.10;;;23.90;99.90;;;;;;5039971;28;20024;-76
2022/06/30 06:31:59;;;;;;;10.98;5.63;;;24.00;99.90;;;;;;5048536;28;20082;-77
2022/06/30 06:34:25;;;;;;;11.20;5.82;;;24.00;99.90;;;;;;5055691;28;20061;-77
2022/06/30 06:36:51;;;;;;;7.43;5.93;;;24.10;99.90;;;;;;5053600;28;20017;-77
2022/06/30 06:39:16;;;;;;;9.07;5.63;;;24.00;99.90;;;;;;5052817;28;20432;-76
2022/06/30 06:41:42;;;;;;;9.52;6.05;;;24.00;99.90;;;;;;5036948;28;20029;-76
2022/06/30 06:44:07;;;;;;;13.65;6.25;;;24.00;99.90;;;;;;5046818;28;20675;-76
2022/06/30 06:46:33;;;;;;;7.88;5.60;;;24.10;99.90;;;;;;5051225;28;20082;-77
2022/06/30 06:49:01;;;;;;;7.97;5.45;;;24.10;99.90;;;;;;5052097;28;20033;-77
2022/06/30 06:51:28;;;;;;;8.45;5.85;;;24.10;99.90;;;;;;5060439;28;20032;-76
2022/06/30 06:53:53;;;;;;;10.57;5.43;;;24.10;99.90;;;;;;5060624;28;20385;-76
2022/06/30 06:56:19;;;;;;;13.50;6.22;;;24.20;99.90;;;;;;5055321;28;20031;-76
2022/06/30 06:58:45;;;;;;;8.00;5.93;;;24.10;99.90;;;;;;5055299;28;20033;-76
2022/06/30 07:01:11;;;;;;;9.25;6.25;;;24.10;99.90;;;;;;5029614;28;20032;-75
2022/06/30 07:03:37;;;;;;;7.72;5.95;;;24.10;99.90;;;;;;5028562;28;20032;-76
2022/06/30 07:06:03;;;;;;;10.88;6.53;;;24.10;99.90;;;;;;5042397;28;20036;-76
2022/06/30 07:08:29;;;;;;;9.55;5.93;;;24.20;99.90;;;;;;5053498;28;20420;-75
2022/06/30 07:10:56;;;;;;;10.45;5.55;;;24.20;99.90;;;;;;5032221;28;20048;-76
2022/06/30 07:13:23;;;;;;;6.68;5.50;;;24.20;99.90;;;;;;5057109;28;20024;-76
2022/06/30 07:15:48;;;;;;;9.90;5.55;;;24.30;99.90;;;;;;5035147;28;20150;-77
2022/06/30 07:18:14;;;;;;;8.85;5.90;;;24.30;99.90;;;;;;5053872;28;20043;-77
2022/06/30 07:20:40;;;;;;;16.27;6.60;;;24.20;99.90;;;;;;5055126;28;20052;-76
2022/06/30 07:23:06;;;;;;;10.75;5.78;;;24.20;99.90;;;;;;5056982;28;20025;-77
2022/06/30 07:25:31;;;;;;;12.38;6.22;;;24.20;99.90;;;;;;5053460;28;20081;-76
2022/06/30 07:27:57;;;;;;;10.48;6.10;;;24.20;99.90;;;;;;5040411;28;20025;-77
2022/06/30 07:30:23;;;;;;;10.20;6.13;;;24.20;99.90;;;;;;5054765;28;20369;-77
2022/06/30 07:32:49;;;;;;;9.40;5.65;;;24.20;99.90;;;;;;5061864;28;20486;-76
2022/06/30 07:35:15;;;;;;;11.80;5.85;;;24.20;99.90;;;;;;5048533;28;20122;-75
2022/06/30 07:37:41;;;;;;;9.02;5.63;;;24.20;99.90;;;;;;5051667;28;20032;-77
2022/06/30 07:40:07;;;;;;;11.80;5.82;;;24.20;99.90;;;;;;5045523;28;20028;-76
2022/06/30 07:42:33;;;;;;;7.10;5.13;;;24.30;99.90;;;;;;5053575;28;20029;-77
2022/06/30 07:44:59;;;;;;;9.13;5.20;;;24.40;99.90;;;;;;5042191;28;20025;-76
2022/06/30 07:47:25;;;;;;;13.90;5.57;;;24.40;99.90;;;;;;5053430;28;20024;-76
2022/06/30 07:49:51;;;;;;;7.50;5.47;;;24.50;99.90;;;;;;5054225;28;20025;-76
2022/06/30 07:52:17;;;;;;;7.70;5.55;;;24.60;99.90;;;;;;5051879;28;20033;-76
2022/06/30 07:54:43;;;;;;;11.57;5.40;;;24.60;99.90;;;;;;5052509;28;20036;-76
2022/06/30 07:57:09;;;;;;;10.75;5.97;;;24.70;99.90;;;;;;5052803;28;20029;-76
2022/06/30 07:59:34;;;;;;;6.88;5.20;;;24.70;99.90;;;;;;5047843;28;20049;-76
2022/06/30 08:02:00;;;;;;;8.90;5.60;;;24.90;99.90;;;;;;5048019;28;20033;-75
2022/06/30 08:04:26;;;;;;;13.02;5.90;;;24.90;99.90;;;;;;5043188;28;20029;-76
2022/06/30 08:06:52;;;;;;;8.40;5.28;;;25.00;99.90;;;;;;5046665;28;20040;-77
2022/06/30 08:09:18;;;;;;;11.48;5.38;;;25.00;99.90;;;;;;5043900;28;20048;-75
2022/06/30 08:11:44;;;;;;;14.35;5.85;;;25.10;99.90;;;;;;5050835;28;20020;-76
2022/06/30 08:14:10;;;;;;;11.77;5.53;;;25.10;99.90;;;;;;5044304;28;20091;-76
2022/06/30 08:16:35;;;;;;;10.25;5.50;;;25.20;99.90;;;;;;5040084;28;20032;-74
2022/06/30 08:19:02;;;;;;;7.63;5.50;;;25.20;99.90;;;;;;5051265;28;20028;-76
2022/06/30 08:21:29;;;;;;;7.18;5.57;;;25.30;99.90;;;;;;5042947;28;20028;-75
2022/06/30 08:23:55;;;;;;;8.60;4.78;;;25.30;99.90;;;;;;5043685;28;20396;-75
2022/06/30 08:26:20;;;;;;;9.48;5.00;;;25.30;99.90;;;;;;5045068;28;20097;-76
2022/06/30 08:28:46;;;;;;;5.85;5.00;;;25.50;99.90;;;;;;5049835;28;20112;-76
2022/06/30 08:31:12;;;;;;;9.40;5.72;;;25.50;99.90;;;;;;5032056;28;20075;-76
2022/06/30 08:33:38;;;;;;;6.97;5.32;;;25.60;99.90;;;;;;5042395;28;20075;-76
2022/06/30 08:36:04;;;;;;;8.27;5.88;;;25.60;99.90;;;;;;5046789;28;20028;-75
2022/06/30 08:38:30;;;;;;;8.35;5.30;;;25.60;99.90;;;;;;5048369;28;20025;-76
2022/06/30 08:43:43;;;;;;;8.55;5.38;;;25.70;99.90;;;;;;5045158;28;20607;-76
2022/06/30 08:46:11;;;;;;;9.00;5.60;;;25.80;99.90;;;;;;5043065;28;20032;-75
2022/06/30 08:48:37;;;;;;;6.47;5.10;;;25.80;99.90;;;;;;5045613;28;20021;-75
2022/06/30 08:51:07;;;;;;;8.68;5.80;;;25.80;99.90;;;;;;5044142;28;20044;-76
2022/06/30 08:53:43;;;;;;;7.35;4.85;;;25.90;99.90;;;;;;5031150;28;20028;-76
2022/06/30 08:56:09;;;;;;;10.30;5.70;;;25.90;99.90;;;;;;5046431;28;20138;-76
2022/06/30 08:58:36;;;;;;;8.88;5.40;;;25.90;99.90;;;;;;5050399;28;20485;-76
2022/06/30 09:01:02;;;;;;;13.38;6.03;;;26.10;99.90;;;;;;5046634;28;20036;-75
2022/06/30 09:03:28;;;;;;;7.75;5.07;;;26.20;99.90;;;;;;5042622;28;20029;-76
2022/06/30 09:05:55;;;;;;;9.02;5.13;;;26.40;99.90;;;;;;5047217;28;20028;-77
2022/06/30 09:08:21;;;;;;;8.30;4.60;;;26.30;99.90;;;;;;5057230;28;20029;-76
2022/06/30 09:10:48;;;;;;;6.18;4.93;;;26.50;99.90;;;;;;5051634;28;20021;-76
2022/06/30 09:13:14;;;;;;;6.97;4.75;;;26.40;99.90;;;;;;5045396;28;20030;-76
2022/06/30 09:15:40;;;;;;;10.27;4.45;;;26.50;99.70;;;;;;5048364;28;20029;-75
2022/06/30 09:18:06;;;;;;;9.68;5.13;;;26.60;99.50;;;;;;5030796;28;20439;-75
2022/06/30 09:20:40;;;;;;;9.90;5.47;;;26.60;99.30;;;;;;5046813;28;20037;-75
2022/06/30 09:23:28;;;;;;;9.20;5.50;;;26.60;99.20;;;;;;5046826;28;20025;-75
2022/06/30 09:26:00;;;;;;;8.13;4.90;;;26.60;99.10;;;;;;5045652;28;23825;-75
2022/06/30 09:28:39;;;;;;;9.82;4.97;;;26.70;99.20;;;;;;5045837;28;20017;-76
2022/06/30 09:31:05;;;;;;;7.85;4.72;;;26.70;99.00;;;;;;5047446;28;20028;-74
2022/06/30 09:33:41;;;;;;;6.45;4.40;;;26.80;98.60;;;;;;5045252;28;20398;-75
2022/06/30 09:36:24;;;;;;;6.07;4.00;;;26.80;98.40;;;;;;5049318;28;20032;-75
2022/06/30 09:39:08;;;;;;;5.60;4.25;;;26.80;97.30;;;;;;5026899;28;20029;-76
2022/06/30 09:41:41;;;;;;;11.60;4.38;;;26.80;97.40;;;;;;5043768;28;20671;-74
2022/06/30 09:44:17;;;;;;;6.10;4.40;;;26.90;97.60;;;;;;5048251;28;20017;-73
2022/06/30 09:47:10;;;;;;;6.45;4.45;;;26.90;98.10;;;;;;5035149;28;20036;-73
2022/06/30 09:49:47;;;;;;;7.93;4.57;;;26.80;98.00;;;;;;5040238;28;20059;-75
2022/06/30 09:52:22;;;;;;;10.65;5.03;;;26.80;98.10;;;;;;5047955;28;20069;-73
2022/06/30 09:54:58;;;;;;;6.55;4.70;;;26.80;97.90;;;;;;5050699;28;20032;-73
2022/06/30 09:57:46;;;;;;;6.85;4.32;;;26.90;97.60;;;;;;5041228;28;20029;-76
2022/06/30 10:00:16;;;;;;;7.90;4.43;;;26.90;97.30;;;;;;5044753;28;20542;-74
2022/06/30 10:02:51;;;;;;;7.13;4.82;;;26.90;96.90;;;;;;5049363;28;20031;-73
2022/06/30 10:05:19;;;;;;;7.57;5.07;;;27.10;96.80;;;;;;5046873;28;20063;-74
2022/06/30 10:07:45;;;;;;;7.28;3.95;;;27.10;96.60;;;;;;5043674;28;20025;-75
2022/06/30 10:10:14;;;;;;;8.60;4.45;;;27.10;96.10;;;;;;5048581;28;20025;-76
2022/06/30 10:12:43;;;;;;;8.65;4.28;;;27.20;96.30;;;;;;5046335;28;20033;-76
2022/06/30 10:15:09;;;;;;;6.38;4.70;;;27.20;96.00;;;;;;5041572;28;20060;-76
2022/06/30 10:17:41;;;;;;;7.60;4.10;;;27.30;95.50;;;;;;5041888;28;20034;-75
2022/06/30 10:20:08;;;;;;;10.35;4.38;;;27.20;95.40;;;;;;5048617;28;20482;-76
2022/06/30 10:22:34;;;;;;;13.50;5.40;;;27.30;95.30;;;;;;5033332;28;20112;-77
2022/06/30 10:24:59;;;;;;;6.07;3.60;;;27.30;95.00;;;;;;5049074;28;20518;-76
2022/06/30 10:27:27;;;;;;;5.63;3.92;;;27.30;92.60;;;;;;5052988;28;20025;-76
2022/06/30 10:29:54;;;;;;;8.45;4.45;;;27.40;92.20;;;;;;5048598;28;20043;-76
2022/06/30 10:32:38;;;;;;;7.78;5.20;;;27.50;93.90;;;;;;5033883;28;20134;-74
2022/06/30 10:35:44;;;;;;;6.53;4.03;;;27.50;93.30;;;;;;5057306;28;20563;-72
2022/06/30 10:38:41;;;;;;;4.25;3.38;;;27.60;92.30;;;;;;4992556;28;20034;-72
2022/06/30 10:41:11;;;;;;;6.60;4.03;;;27.60;91.10;;;;;;5038129;28;20039;-74
2022/06/30 10:44:05;;;;;;;8.30;3.33;;;27.80;90.50;;;;;;5050418;28;20179;-75
2022/06/30 10:46:35;;;;;;;6.63;3.15;;;27.90;89.40;;;;;;5056591;28;20052;-76
2022/06/30 10:49:08;;;;;;;7.18;3.58;;;27.90;89.30;;;;;;5052802;28;20021;-76
2022/06/30 10:51:34;;;;;;;4.38;3.55;;;28.00;89.00;;;;;;5035936;28;20035;-70
2022/06/30 10:54:00;;;;;;;10.25;3.40;;;28.00;90.50;;;;;;5052866;28;20745;-70
2022/06/30 10:56:54;;;;;;;5.78;3.80;;;28.00;89.00;;;;;;5047994;28;20036;-70
2022/06/30 10:59:42;;;;;;;6.88;3.65;;;28.00;89.70;;;;;;5057251;28;20092;-71
2022/06/30 11:02:10;;;;;;;6.60;4.28;;;28.00;90.10;;;;;;5031823;28;20072;-70
2022/06/30 11:04:42;;;;;;;4.38;3.70;;;28.00;90.00;;;;;;5035035;28;20032;-70
2022/06/30 11:07:08;;;;;;;7.82;3.63;;;28.00;89.20;;;;;;5046639;28;20092;-70
2022/06/30 11:09:57;;;;;;;7.00;4.25;;;28.00;89.30;;;;;;5039800;28;20025;-71
2022/06/30 11:12:48;;;;;;;9.00;4.13;;;28.00;90.20;;;;;;5046423;28;20029;-66
2022/06/30 11:15:15;;;;;;;8.07;5.13;;;28.00;90.20;;;;;;5046021;28;20139;-65
2022/06/30 11:17:41;;;;;;;7.22;3.95;;;28.00;90.60;;;;;;5052860;28;20028;-66
2022/06/30 11:20:08;;;;;;;8.52;4.38;;;28.10;90.40;;;;;;5049279;28;20055;-66
2022/06/30 11:22:35;;;;;;;6.22;4.10;;;28.10;90.60;;;;;;5055021;28;20028;-68
2022/06/30 11:25:09;;;;;;;5.05;4.45;;;28.10;90.70;;;;;;5050025;28;20174;-67
2022/06/30 11:27:37;;;;;;;7.95;4.20;;;28.10;90.90;;;;;;5046165;28;20039;-66
2022/06/30 11:30:11;;;;;;;10.38;4.47;;;28.20;89.00;;;;;;5050381;28;20112;-66
2022/06/30 11:32:39;;;;;;;5.40;3.38;;;28.20;89.20;;;;;;5050425;28;20036;-76
2022/06/30 11:35:05;;;;;;;6.63;3.67;;;28.20;89.60;;;;;;5049946;28;20032;-76
2022/06/30 11:37:35;;;;;;;5.03;3.35;;;28.30;87.20;;;;;;5050934;28;20064;-76
2022/06/30 11:40:06;;;;;;;3.78;3.35;;;28.30;86.60;;;;;;5049831;28;20742;-76
2022/06/30 11:42:33;;;;;;;4.10;3.28;;;28.40;85.40;;;;;;5051353;28;20025;-75
2022/06/30 11:44:59;;;;;;;5.75;3.47;;;28.50;81.50;;;;;;5054504;28;20032;-77
2022/06/30 11:47:28;;;;;;;4.55;3.25;;;28.50;80.50;;;;;;5055524;28;20092;-77
2022/06/30 11:49:59;;;;;;;4.38;3.38;;;28.60;79.00;;;;;;5049621;28;20107;-76
2022/06/30 11:52:35;;;;;;;7.00;3.42;;;28.70;79.00;;;;;;5032765;28;20041;-78
2022/06/30 11:55:06;;;;;;;4.22;3.10;;;28.70;77.80;;;;;;5053246;28;20036;-79
2022/06/30 11:57:38;;;;;;;3.65;3.13;;;28.80;77.80;;;;;;5055642;28;20035;-78
2022/06/30 12:00:06;;;;;;;5.28;3.33;;;28.80;77.60;;;;;;5055136;28;20059;-79
2022/06/30 12:02:33;;;;;;;7.72;3.90;;;28.90;77.50;;;;;;5028532;28;20537;-78
2022/06/30 12:05:00;;;;;;;5.78;3.08;;;28.90;77.20;;;;;;5057646;28;20017;-78
2022/06/30 12:07:28;;;;;;;6.47;4.10;;;29.00;77.00;;;;;;5053648;28;20438;-70
2022/06/30 12:09:55;;;;;;;6.40;3.50;;;29.10;76.90;;;;;;5046622;28;20548;-69
2022/06/30 12:12:29;;;;;;;4.18;3.40;;;29.10;77.60;;;;;;5025680;28;20086;-70
2022/06/30 12:14:58;;;;;;;6.60;3.75;;;29.20;76.10;;;;;;5052076;28;20025;-70
2022/06/30 12:17:29;;;;;;;5.75;3.80;;;29.20;78.10;;;;;;5046767;28;20563;-71
2022/06/30 12:19:55;;;;;;;6.70;3.28;;;29.20;79.30;;;;;;5045046;28;20032;-71
2022/06/30 12:22:20;;;;;;;11.93;4.07;;;29.20;78.00;;;;;;5053498;28;20021;-71
2022/06/30 12:24:48;;;;;;;6.63;3.63;;;29.30;79.30;;;;;;5036721;28;20029;-71
2022/06/30 12:27:29;;;;;;;4.88;3.67;;;29.40;80.40;;;;;;5051807;28;20021;-72
2022/06/30 12:30:01;;;;;;;8.35;3.70;;;29.60;80.30;;;;;;5052902;28;20115;-71
2022/06/30 12:32:28;;;;;;;3.53;3.22;;;29.70;80.50;;;;;;5055163;28;20028;-71
2022/06/30 12:34:57;;;;;;;3.95;3.40;;;29.80;79.70;;;;;;5049249;28;20066;-71
2022/06/30 12:37:31;;;;;;;5.88;3.53;;;29.90;78.70;;;;;;5043261;28;20037;-72
2022/06/30 12:40:02;;;;;;;5.35;3.20;;;29.90;77.10;;;;;;5053256;28;20120;-72
2022/06/30 12:42:48;;;;;;;7.30;3.42;;;30.10;76.40;;;;;;5045146;28;20053;-71
2022/06/30 12:45:36;;;;;;;4.15;3.75;;;30.20;74.40;;;;;;5050593;28;20116;-70
2022/06/30 12:48:06;;;;;;;4.97;3.13;;;30.30;75.20;;;;;;5049546;28;20028;-71
2022/06/30 12:50:37;;;;;;;4.20;3.42;;;30.30;73.10;;;;;;5046106;28;20130;-70
2022/06/30 12:53:23;;;;;;;3.97;3.30;;;30.40;73.60;;;;;;5045663;28;20171;-72
2022/06/30 12:56:01;;;;;;;6.82;3.20;;;30.40;75.30;;;;;;5051291;28;20025;-71
2022/06/30 12:58:42;;;;;;;5.00;4.00;;;30.50;73.70;;;;;;5046597;28;20056;-71
2022/06/30 13:01:08;;;;;;;4.18;3.70;;;30.50;73.70;;;;;;5045243;28;20116;-71